Time;durP1;ratioP1;P1;durP2;ratioP2;P2;SDS_P1;SDS_P2;PMS_P1;PMS_P2;Temp;Humidity;BMP_temperature;BMP_pressure;BME280_temperature;BME280_humidity;BME280_pressure;Samples;Min_cycle;Max_cycle;Signal;HPM_P1;HPM_P2
2021/05/01 00:01:34;;;;;;;7.72;4.10;;;;;;;27.05;18.51;97745.13;5051089;28;20033;-82
2021/05/01 00:04:00;;;;;;;5.57;4.25;;;;;;;27.46;18.09;97752.38;5051226;28;20041;-81
2021/05/01 00:06:26;;;;;;;8.88;4.70;;;;;;;27.19;18.27;97743.81;5049484;28;20033;-82
2021/05/01 00:08:52;;;;;;;7.47;3.85;;;;;;;26.96;18.59;97738.66;5049945;28;20111;-82
2021/05/01 00:11:19;;;;;;;6.78;4.28;;;;;;;26.55;18.75;97740.59;5050589;28;20033;-82
2021/05/01 00:13:46;;;;;;;7.03;5.15;;;;;;;26.30;19.31;97737.88;5051485;28;20390;-81
2021/05/01 00:16:12;;;;;;;8.68;4.97;;;;;;;26.50;19.22;97737.56;5044702;28;20051;-81
2021/05/01 00:18:38;;;;;;;7.07;3.78;;;;;;;27.15;18.16;97743.13;5051155;28;20060;-82
2021/05/01 00:21:04;;;;;;;4.65;3.65;;;;;;;27.67;17.90;97747.91;5051486;28;20043;-81
2021/05/01 00:23:30;;;;;;;5.63;4.10;;;;;;;27.61;17.66;97753.34;5049995;28;20032;-82
2021/05/01 00:25:58;;;;;;;3.67;3.28;;;;;;;27.32;18.29;97761.38;5049473;28;20029;-82
2021/05/01 00:28:25;;;;;;;6.45;3.80;;;;;;;27.65;17.73;97764.50;5052607;28;20040;-82
2021/05/01 00:30:51;;;;;;;5.07;3.70;;;;;;;27.63;17.55;97773.44;5053361;28;20199;-82
2021/05/01 00:33:17;;;;;;;7.13;5.00;;;;;;;27.38;17.88;97780.09;5049919;28;20056;-82
2021/05/01 00:35:43;;;;;;;3.97;3.63;;;;;;;27.19;18.36;97778.41;5043406;28;20036;-82
2021/05/01 00:38:10;;;;;;;4.20;3.70;;;;;;;26.86;18.95;97776.50;5051113;28;20033;-82
2021/05/01 00:40:36;;;;;;;6.80;5.25;;;;;;;25.92;19.79;97768.19;5051248;28;20029;-81
2021/05/01 00:43:02;;;;;;;6.93;4.78;;;;;;;25.30;20.37;97764.97;5052706;28;20036;-82
2021/05/01 00:45:29;;;;;;;5.43;4.03;;;;;;;24.30;21.71;97775.97;5049124;28;20051;-82
2021/05/01 00:47:55;;;;;;;7.47;4.85;;;;;;;24.33;21.58;97780.69;5052613;28;20033;-82
2021/05/01 00:50:21;;;;;;;6.53;5.20;;;;;;;24.21;21.76;97787.84;5049587;28;20037;-82
2021/05/01 00:52:47;;;;;;;5.93;4.30;;;;;;;24.78;21.42;97775.03;5052367;28;20108;-82
2021/05/01 00:55:13;;;;;;;7.13;4.53;;;;;;;24.68;21.30;97782.50;5052328;28;20036;-82
2021/05/01 00:57:41;;;;;;;9.95;5.82;;;;;;;23.52;22.79;97775.19;5051248;28;20426;-82
2021/05/01 01:02:47;;;;;;;6.40;5.07;;;;;;;23.13;23.69;97775.28;5051614;28;20033;-82
2021/05/01 01:05:14;;;;;;;6.97;5.45;;;;;;;23.19;23.59;97779.16;5049963;28;20078;-82
2021/05/01 01:07:40;;;;;;;14.90;8.25;;;;;;;22.96;23.55;97770.88;5049989;28;20051;-81
2021/05/01 01:10:06;;;;;;;9.88;6.93;;;;;;;22.78;23.91;97762.09;5041860;28;20556;-82
2021/05/01 01:12:32;;;;;;;8.77;6.25;;;;;;;23.32;23.24;97763.22;5052474;28;20041;-82
2021/05/01 01:14:59;;;;;;;9.90;6.72;;;;;;;23.09;23.74;97769.75;5049475;28;20037;-82
2021/05/01 01:17:25;;;;;;;11.00;8.55;;;;;;;22.73;23.98;97763.38;5050655;28;20029;-82
2021/05/01 01:19:53;;;;;;;11.93;8.65;;;;;;;21.76;25.47;97757.22;5050748;28;20090;-82
2021/05/01 01:22:19;;;;;;;12.18;8.02;;;;;;;20.71;27.05;97745.69;5042493;28;20030;-82
2021/05/01 01:24:45;;;;;;;9.13;7.10;;;;;;;21.42;26.43;97747.47;5049118;28;20398;-82
2021/05/01 01:27:12;;;;;;;11.85;7.40;;;;;;;21.46;26.02;97757.34;5049798;28;20466;-81
2021/05/01 01:29:40;;;;;;;13.23;8.93;;;;;;;21.29;26.39;97755.63;5051509;28;20033;-82
2021/05/01 01:32:08;;;;;;;14.18;9.02;;;;;;;21.90;25.52;97753.41;5052355;28;20048;-82
2021/05/01 01:34:34;;;;;;;10.02;7.40;;;;;;;22.28;24.93;97757.50;5049258;28;20048;-82
2021/05/01 01:37:00;;;;;;;12.13;7.30;;;;;;;22.10;25.23;97754.22;5051828;28;20036;-82
2021/05/01 01:39:26;;;;;;;11.48;8.40;;;;;;;21.54;26.28;97777.59;5045919;28;20041;-82
2021/05/01 01:41:53;;;;;;;11.80;7.78;;;;;;;22.32;25.04;97758.19;5049554;28;20033;-82
2021/05/01 01:44:19;;;;;;;11.90;9.57;;;;;;;21.77;25.84;97766.41;5051392;28;20036;-82
2021/05/01 01:46:45;;;;;;;9.90;7.40;;;;;;;22.69;24.77;97763.44;5051496;28;20079;-82
2021/05/01 01:49:11;;;;;;;12.02;9.05;;;;;;;21.82;25.86;97763.13;5052308;28;20037;-82
2021/05/01 01:51:38;;;;;;;13.68;10.02;;;;;;;21.01;26.99;97762.41;5050039;28;20021;-82
2021/05/01 01:54:04;;;;;;;11.07;7.93;;;;;;;23.01;24.25;97759.94;5050611;28;20033;-82
2021/05/01 01:56:34;;;;;;;7.85;6.60;;;;;;;22.65;24.74;97764.75;5049436;28;20103;-82
2021/05/01 01:59:00;;;;;;;9.48;7.80;;;;;;;22.44;24.97;97760.34;5044522;28;20028;-82
2021/05/01 02:01:26;;;;;;;11.80;7.75;;;;;;;22.95;24.27;97766.50;5052186;28;20056;-82
2021/05/01 02:03:52;;;;;;;12.38;7.63;;;;;;;22.92;24.08;97765.34;5051483;28;20083;-82
2021/05/01 02:06:18;;;;;;;9.63;7.18;;;;;;;22.96;24.44;97754.88;5050111;28;20044;-82
2021/05/01 02:08:44;;;;;;;13.77;9.85;;;;;;;21.69;26.43;97760.16;5045367;28;20041;-82
2021/05/01 02:11:10;;;;;;;8.77;6.47;;;;;;;23.25;24.37;97755.78;5046566;28;20103;-82
2021/05/01 02:13:36;;;;;;;12.65;9.35;;;;;;;21.25;26.78;97740.94;5054097;28;20111;-82
2021/05/01 02:16:02;;;;;;;12.95;9.73;;;;;;;21.14;27.31;97734.75;5055491;28;20034;-82
2021/05/01 02:18:30;;;;;;;11.27;8.65;;;;;;;21.10;27.33;97739.56;5052052;28;20033;-82
2021/05/01 02:20:56;;;;;;;14.82;10.57;;;;;;;21.05;27.74;97734.50;5050831;28;20025;-82
2021/05/01 02:23:22;;;;;;;12.52;8.07;;;;;;;21.53;27.31;97736.88;5051014;28;20033;-82
2021/05/01 02:25:48;;;;;;;7.05;6.00;;;;;;;24.06;23.71;97736.16;5054643;28;20033;-82
2021/05/01 02:28:17;;;;;;;10.00;7.30;;;;;;;24.16;23.00;97748.31;5053503;28;20025;-82
2021/05/01 02:30:43;;;;;;;10.23;8.40;;;;;;;23.48;23.89;97743.66;5052855;28;20120;-82
2021/05/01 02:33:09;;;;;;;12.73;10.63;;;;;;;22.06;25.97;97728.34;5053329;28;20080;-81
2021/05/01 02:35:38;;;;;;;14.48;10.60;;;;;;;20.99;27.17;97731.34;5051806;28;20035;-82
2021/05/01 02:38:04;;;;;;;11.80;7.72;;;;;;;22.12;25.80;97728.66;5054348;28;20091;-82
2021/05/01 02:40:31;;;;;;;11.60;8.95;;;;;;;21.93;25.70;97721.81;5055657;28;20545;-82
2021/05/01 02:43:00;;;;;;;10.75;7.40;;;;;;;23.61;23.67;97727.72;5049195;28;20474;-82
2021/05/01 02:45:26;;;;;;;8.63;6.05;;;;;;;24.31;22.91;97727.84;5051042;28;20059;-82
2021/05/01 02:47:52;;;;;;;8.70;6.88;;;;;;;24.61;22.26;97732.19;5053166;28;20458;-82
2021/05/01 02:50:18;;;;;;;13.45;7.82;;;;;;;24.68;22.49;97726.34;5057245;28;20033;-82
2021/05/01 02:52:45;;;;;;;9.80;8.23;;;;;;;23.24;24.02;97717.78;5053847;28;20072;-82
2021/05/01 02:55:13;;;;;;;15.88;7.57;;;;;;;22.95;25.21;97713.28;5051137;28;20124;-82
2021/05/01 02:57:39;;;;;;;10.45;7.75;;;;;;;23.13;24.66;97708.84;5050814;28;20033;-82
2021/05/01 03:00:11;;;;;;;10.88;8.82;;;;;;;21.55;27.18;97698.13;5052861;28;20083;-82
2021/05/01 03:02:37;;;;;;;10.23;8.18;;;;;;;21.82;27.27;97698.84;5050460;28;20029;-82
2021/05/01 03:05:03;;;;;;;12.07;8.93;;;;;;;22.44;26.20;97703.63;5053248;28;20033;-81
2021/05/01 03:07:30;;;;;;;9.75;7.22;;;;;;;25.10;22.71;97711.03;5051933;28;20037;-81
2021/05/01 03:09:56;;;;;;;7.20;6.20;;;;;;;26.01;21.49;97712.78;5054359;28;20036;-82
2021/05/01 03:12:22;;;;;;;10.07;6.57;;;;;;;25.99;22.15;97714.47;5046990;28;20041;-81
2021/05/01 03:14:48;;;;;;;10.85;8.18;;;;;;;24.45;23.54;97707.78;5054940;28;20033;-81
2021/05/01 03:17:14;;;;;;;10.48;8.00;;;;;;;24.73;23.85;97700.53;5052810;28;20062;-81
2021/05/01 03:19:40;;;;;;;13.80;9.73;;;;;;;23.14;25.43;97704.03;5046966;28;20036;-81
2021/05/01 03:22:07;;;;;;;8.90;7.45;;;;;;;22.46;27.01;97703.97;5054392;28;20100;-82
2021/05/01 03:24:34;;;;;;;8.65;6.97;;;;;;;24.27;24.81;97698.31;5052257;28;20090;-82
2021/05/01 03:27:00;;;;;;;9.27;7.38;;;;;;;24.24;24.62;97697.19;5049490;28;20442;-81
2021/05/01 03:29:27;;;;;;;12.70;9.35;;;;;;;23.07;26.18;97693.81;5050270;28;20028;-81
2021/05/01 03:31:53;;;;;;;12.50;9.38;;;;;;;21.24;28.74;97687.09;5054261;28;20047;-82
2021/05/01 03:34:19;;;;;;;14.65;11.00;;;;;;;20.06;30.81;97698.72;5050154;28;20029;-81
2021/05/01 03:36:45;;;;;;;13.52;10.02;;;;;;;20.49;30.31;97699.78;5052817;28;20041;-82
2021/05/01 03:39:13;;;;;;;13.45;10.07;;;;;;;20.78;30.04;97697.38;5051213;28;20033;-81
2021/05/01 03:41:39;;;;;;;10.20;8.23;;;;;;;22.72;27.45;97696.63;5048817;28;20092;-82
2021/05/01 03:44:05;;;;;;;13.68;10.00;;;;;;;23.19;26.51;97698.72;5052589;28;20075;-82
2021/05/01 03:46:31;;;;;;;12.45;9.32;;;;;;;23.47;26.18;97713.28;5051774;28;20099;-82
2021/05/01 03:48:57;;;;;;;10.70;8.10;;;;;;;24.51;24.22;97713.63;5051256;28;20035;-82
2021/05/01 03:51:23;;;;;;;8.77;7.50;;;;;;;25.22;23.53;97715.88;5052870;28;20037;-82
2021/05/01 03:53:49;;;;;;;11.55;8.85;;;;;;;25.14;23.24;97711.69;5053721;28;20482;-82
2021/05/01 03:56:15;;;;;;;9.90;8.13;;;;;;;24.45;24.42;97707.78;5052679;28;20033;-81
2021/05/01 03:58:42;;;;;;;11.63;8.32;;;;;;;23.74;25.42;97699.75;5053802;28;20379;-82
2021/05/01 04:01:08;;;;;;;14.00;10.75;;;;;;;22.77;26.73;97715.72;5052463;28;20508;-82
2021/05/01 04:03:34;;;;;;;13.77;8.50;;;;;;;23.10;26.55;97712.53;5049381;28;20143;-82
2021/05/01 04:06:00;;;;;;;13.82;9.45;;;;;;;22.20;27.90;97714.09;5052701;28;20399;-82
2021/05/01 04:08:26;;;;;;;11.52;9.40;;;;;;;22.31;27.50;97713.88;5049078;28;20036;-82
2021/05/01 04:10:53;;;;;;;13.98;9.60;;;;;;;22.47;27.55;97711.94;5049714;28;20091;-83
2021/05/01 04:13:19;;;;;;;13.98;9.40;;;;;;;23.05;26.50;97712.28;5050697;28;20119;-82
2021/05/01 04:15:45;;;;;;;14.88;11.23;;;;;;;20.62;30.20;97703.59;5047583;28;20025;-82
2021/05/01 04:18:14;;;;;;;16.70;12.70;;;;;;;18.70;33.95;97703.09;5047700;28;20040;-82
2021/05/01 04:20:41;;;;;;;18.23;12.07;;;;;;;18.20;35.09;97716.44;5047451;28;20029;-83
2021/05/01 04:23:08;;;;;;;18.15;11.93;;;;;;;20.37;30.93;97715.09;5049127;28;20036;-82
2021/05/01 04:25:35;;;;;;;15.00;10.65;;;;;;;19.98;32.10;97725.84;5039606;28;20040;-81
2021/05/01 04:28:02;;;;;;;10.50;8.45;;;;;;;22.87;27.58;97725.91;5042093;28;20091;-82
2021/05/01 04:30:28;;;;;;;9.95;7.60;;;;;;;23.71;25.93;97723.06;5036746;28;20034;-82
2021/05/01 04:32:54;;;;;;;12.55;9.50;;;;;;;24.07;25.15;97731.31;5053506;28;20030;-81
2021/05/01 04:35:21;;;;;;;12.73;9.27;;;;;;;23.62;25.43;97736.91;5034658;28;20037;-81
2021/05/01 04:37:47;;;;;;;9.32;8.02;;;;;;;23.04;26.34;97733.09;5052805;28;20502;-81
2021/05/01 04:40:14;;;;;;;13.57;11.10;;;;;;;21.97;28.42;97717.75;5050834;28;20111;-82
2021/05/01 04:42:51;;;;;;;16.13;10.50;;;;;;;21.14;30.11;97721.56;5044010;28;20083;-81
2021/05/01 04:45:18;;;;;;;10.50;8.13;;;;;;;22.81;27.81;97717.22;5046849;28;20130;-82
2021/05/01 04:47:44;;;;;;;12.65;10.18;;;;;;;21.20;29.06;97731.03;5047275;28;20063;-81
2021/05/01 04:50:13;;;;;;;10.68;7.63;;;;;;;22.31;27.73;97736.25;5040994;28;20090;-81
2021/05/01 04:52:39;;;;;;;12.50;8.48;;;;;;;23.46;25.80;97740.50;5047640;28;20076;-81
2021/05/01 04:55:16;;;;;;;11.18;9.00;;;;;;;23.27;25.77;97744.94;5049300;28;20107;-81
2021/05/01 04:57:44;;;;;;;14.75;10.50;;;;;;;22.28;27.23;97742.72;5049487;28;20120;-82
2021/05/01 05:00:11;;;;;;;15.75;11.32;;;;;;;21.45;28.91;97739.00;5050333;28;20114;-82
2021/05/01 05:02:38;;;;;;;10.68;8.35;;;;;;;23.45;26.23;97738.13;5043267;28;20478;-82
2021/05/01 05:05:06;;;;;;;10.73;8.75;;;;;;;22.59;26.86;97733.66;5049279;28;20490;-82
2021/05/01 05:07:33;;;;;;;12.20;9.55;;;;;;;22.10;27.47;97722.72;5046342;28;20153;-82
2021/05/01 05:09:59;;;;;;;13.65;9.63;;;;;;;21.54;28.41;97728.06;5039851;28;20047;-82
2021/05/01 05:12:25;;;;;;;10.25;9.02;;;;;;;21.35;29.15;97729.59;5043299;28;20494;-81
2021/05/01 05:14:51;;;;;;;14.32;11.02;;;;;;;21.13;29.53;97725.56;5045850;28;20171;-81
2021/05/01 05:17:18;;;;;;;12.48;10.02;;;;;;;20.85;30.23;97725.97;5047154;28;20037;-81
2021/05/01 05:19:45;;;;;;;16.88;11.85;;;;;;;19.98;31.63;97737.81;5046221;28;20471;-81
2021/05/01 05:22:11;;;;;;;15.13;10.35;;;;;;;21.84;29.05;97719.56;5050808;28;20025;-82
2021/05/01 05:24:40;;;;;;;14.65;11.00;;;;;;;21.36;29.80;97710.84;5047121;28;20040;-81
2021/05/01 05:27:06;;;;;;;11.80;9.90;;;;;;;21.51;29.63;97714.19;5043098;28;20094;-82
2021/05/01 05:29:33;;;;;;;11.88;7.35;;;;;;;23.30;26.24;97723.66;5050543;28;20060;-82
2021/05/01 05:31:59;;;;;;;17.77;11.77;;;;;;;21.22;29.43;97719.44;5050513;28;20035;-82
2021/05/01 05:34:26;;;;;;;10.63;7.47;;;;;;;22.92;27.32;97720.56;5048557;28;20055;-82
2021/05/01 05:36:52;;;;;;;9.27;7.38;;;;;;;24.09;25.54;97731.66;5049628;28;20033;-82
2021/05/01 05:39:18;;;;;;;14.73;10.63;;;;;;;23.85;25.36;97728.31;5042534;28;20033;-82
2021/05/01 05:41:44;;;;;;;15.15;10.65;;;;;;;21.69;29.37;97707.06;5046115;28;20431;-82
2021/05/01 05:44:11;;;;;;;10.52;8.43;;;;;;;23.16;27.28;97707.19;5046393;28;20039;-82
2021/05/01 05:46:38;;;;;;;17.10;11.57;;;;;;;21.75;28.28;97691.38;5042393;28;20049;-83
2021/05/01 05:49:05;;;;;;;15.50;11.15;;;;;;;20.89;30.61;97700.78;5044096;28;20457;-82
2021/05/01 05:51:31;;;;;;;11.30;8.15;;;;;;;23.78;26.33;97709.63;5037886;28;20028;-82
2021/05/01 05:53:57;;;;;;;17.70;12.02;;;;;;;23.24;26.37;97720.56;5044423;28;20092;-82
2021/05/01 05:56:23;;;;;;;10.80;8.10;;;;;;;24.65;24.67;97733.66;5046150;28;20029;-82
2021/05/01 05:58:50;;;;;;;10.98;8.10;;;;;;;25.66;23.02;97742.13;5041679;28;20051;-82
2021/05/01 06:01:16;;;;;;;9.38;7.28;;;;;;;26.55;21.92;97748.25;5041951;28;20095;-82
2021/05/01 06:03:47;;;;;;;16.30;11.68;;;;;;;24.43;24.55;97726.31;5045818;28;20041;-82
2021/05/01 06:06:17;;;;;;;18.08;12.93;;;;;;;19.86;32.16;97676.25;5042396;28;20048;-82
2021/05/01 06:08:44;;;;;;;15.05;11.55;;;;;;;20.43;32.13;97682.72;5046260;28;20037;-82
2021/05/01 06:11:11;;;;;;;10.77;8.70;;;;;;;22.96;28.02;97696.09;5040165;28;20513;-82
2021/05/01 06:13:38;;;;;;;12.20;9.15;;;;;;;23.10;27.32;97706.16;5048337;28;20555;-82
2021/05/01 06:16:05;;;;;;;11.93;8.00;;;;;;;24.09;25.55;97715.63;5049607;28;20096;-82
2021/05/01 06:18:38;;;;;;;10.80;7.97;;;;;;;25.38;23.71;97724.16;5041646;28;20103;-82
2021/05/01 06:21:08;;;;;;;12.00;8.13;;;;;;;26.27;22.76;97721.16;5042608;28;20108;-82
2021/05/01 06:23:36;;;;;;;14.13;11.10;;;;;;;25.40;23.31;97718.88;5040877;28;20561;-82
2021/05/01 06:26:04;;;;;;;9.32;7.00;;;;;;;25.85;23.59;97714.97;5044943;28;20037;-82
2021/05/01 06:28:30;;;;;;;8.73;7.32;;;;;;;26.02;22.96;97708.72;5047476;28;20029;-82
2021/05/01 06:31:06;;;;;;;8.35;6.88;;;;;;;25.29;23.59;97704.41;5038942;28;20116;-82
2021/05/01 06:33:35;;;;;;;10.50;8.02;;;;;;;24.87;24.43;97702.16;5042355;28;20125;-82
2021/05/01 06:36:03;;;;;;;10.05;7.20;;;;;;;25.47;23.62;97700.22;5038353;28;20030;-83
2021/05/01 06:38:31;;;;;;;9.73;7.63;;;;;;;25.87;23.38;97713.28;5044777;28;20025;-82
2021/05/01 06:41:02;;;;;;;12.00;8.20;;;;;;;26.31;22.58;97707.72;5043151;28;20086;-82
2021/05/01 06:43:31;;;;;;;11.63;9.07;;;;;;;25.25;24.01;97691.69;5043406;28;20041;-81
2021/05/01 06:45:59;;;;;;;11.43;8.18;;;;;;;24.40;25.53;97669.06;5046079;28;20108;-82
2021/05/01 06:48:32;;;;;;;11.52;9.35;;;;;;;23.46;26.92;97675.25;5046837;28;20032;-81
2021/05/01 06:51:02;;;;;;;15.70;12.60;;;;;;;21.60;30.17;97675.31;5050545;28;20029;-81
2021/05/01 06:53:31;;;;;;;13.17;10.67;;;;;;;21.37;30.83;97684.50;5046327;28;20036;-82
2021/05/01 06:56:04;;;;;;;11.13;8.30;;;;;;;23.12;28.41;97695.28;5046258;28;20083;-82
2021/05/01 06:58:33;;;;;;;12.80;9.00;;;;;;;24.22;26.62;97685.63;5044039;28;20079;-82
2021/05/01 07:01:04;;;;;;;13.13;8.82;;;;;;;24.72;25.90;97687.72;5047589;28;20122;-83
2021/05/01 07:03:33;;;;;;;11.57;8.07;;;;;;;24.57;26.19;97700.63;5046815;28;20136;-82
2021/05/01 07:06:01;;;;;;;9.48;7.15;;;;;;;25.55;24.17;97695.94;5050365;28;20111;-82
2021/05/01 07:08:27;;;;;;;11.98;10.55;;;;;;;24.08;26.42;97697.25;5050987;28;20094;-81
2021/05/01 07:10:54;;;;;;;15.65;12.15;;;;;;;23.52;27.00;97685.50;5054359;28;20486;-81
2021/05/01 07:13:21;;;;;;;11.88;10.30;;;;;;;24.07;27.27;97683.66;5052800;28;20051;-81
2021/05/01 07:15:47;;;;;;;18.00;14.02;;;;;;;23.06;27.78;97700.63;5049969;28;20064;-81
2021/05/01 07:18:14;;;;;;;17.50;12.70;;;;;;;22.90;28.25;97706.19;5052717;28;20040;-80
2021/05/01 07:20:40;;;;;;;13.52;10.05;;;;;;;23.62;27.88;97704.06;5050972;28;20034;-81
2021/05/01 07:23:06;;;;;;;10.70;8.50;;;;;;;24.39;26.63;97694.72;5051867;28;20037;-82
2021/05/01 07:25:33;;;;;;;14.57;11.88;;;;;;;24.20;26.87;97690.09;5050888;28;20038;-82
2021/05/01 07:28:10;;;;;;;10.15;8.73;;;;;;;25.39;25.63;97699.66;5047519;28;20399;-82
2021/05/01 07:30:44;;;;;;;11.98;10.00;;;;;;;26.22;24.00;97710.47;5046796;28;20028;-82
2021/05/01 07:33:27;;;;;;;18.77;11.82;;;;;;;25.99;23.88;97703.22;5048279;28;20037;-82
2021/05/01 07:36:01;;;;;;;13.30;10.32;;;;;;;26.29;23.34;97707.41;5047462;28;20041;-83
2021/05/01 07:38:27;;;;;;;14.65;12.00;;;;;;;25.41;25.07;97706.38;5057555;28;20032;-82
2021/05/01 07:40:58;;;;;;;19.30;12.30;;;;;;;23.93;27.35;97710.84;5048964;28;20044;-81
2021/05/01 07:43:26;;;;;;;17.13;13.63;;;;;;;24.55;26.37;97708.72;5049347;28;20038;-83
2021/05/01 07:45:53;;;;;;;14.27;9.75;;;;;;;25.59;25.23;97707.84;5046451;28;20033;-83
2021/05/01 07:48:20;;;;;;;18.92;13.98;;;;;;;24.12;27.12;97716.75;5044644;28;20029;-82
2021/05/01 07:50:47;;;;;;;18.48;13.75;;;;;;;23.17;28.83;97714.38;5048765;28;20033;-83
2021/05/01 07:53:14;;;;;;;14.05;10.35;;;;;;;24.21;27.90;97705.69;5048124;28;20034;-83
2021/05/01 07:55:41;;;;;;;13.90;10.48;;;;;;;25.04;26.67;97698.00;5050670;28;20487;-83
2021/05/01 07:58:07;;;;;;;20.92;16.70;;;;;;;22.81;29.47;97714.41;5049473;28;20037;-82
2021/05/01 08:00:34;;;;;;;20.45;14.93;;;;;;;22.62;31.30;97718.03;5049551;28;20173;-83
2021/05/01 08:03:04;;;;;;;18.77;15.50;;;;;;;22.57;31.33;97718.50;5049081;28;20037;-84
2021/05/01 08:05:30;;;;;;;23.65;17.08;;;;;;;21.06;33.23;97711.72;5054774;28;20095;-82
2021/05/01 08:07:58;;;;;;;17.27;14.68;;;;;;;22.13;32.64;97713.44;5049673;28;20120;-83
2021/05/01 08:10:24;;;;;;;22.63;17.08;;;;;;;21.32;33.27;97715.69;5046520;28;20036;-83
2021/05/01 08:12:50;;;;;;;16.20;13.25;;;;;;;22.40;30.59;97709.28;5048309;28;20063;-83
2021/05/01 08:15:16;;;;;;;15.88;13.52;;;;;;;22.10;32.41;97714.31;5045500;28;20033;-83
2021/05/01 08:17:43;;;;;;;22.38;17.88;;;;;;;20.62;35.48;97711.97;5048207;28;20489;-83
2021/05/01 08:20:10;;;;;;;19.85;14.90;;;;;;;20.31;35.72;97716.75;5048983;28;20040;-84
2021/05/01 08:22:37;;;;;;;21.27;17.25;;;;;;;20.79;35.30;97712.91;5043566;28;20037;-84
2021/05/01 08:25:08;;;;;;;20.42;16.95;;;;;;;21.25;34.96;97716.63;5046686;28;20029;-84
2021/05/01 08:27:34;;;;;;;;;;;;;;;21.53;34.51;97720.13;5043962;28;20445;-83
2021/05/01 08:30:02;;;;;;;22.48;17.40;;;;;;;20.81;35.29;97722.44;5039904;28;19962;-84
2021/05/01 08:32:28;;;;;;;22.40;16.83;;;;;;;21.54;34.35;97725.28;5042386;28;20110;-84
2021/05/01 08:34:54;;;;;;;21.40;15.98;;;;;;;21.00;33.91;97730.16;5043681;28;20033;-84
2021/05/01 08:37:20;;;;;;;19.05;15.23;;;;;;;21.33;33.50;97740.41;5047115;28;20115;-85
2021/05/01 08:39:46;;;;;;;19.63;15.43;;;;;;;20.90;35.07;97742.25;5051190;28;20040;-85
2021/05/01 08:42:13;;;;;;;19.65;15.85;;;;;;;20.96;34.63;97743.34;5046784;28;20394;-84
2021/05/01 08:44:39;;;;;;;15.15;12.13;;;;;;;22.35;32.58;97745.38;5043040;28;20030;-85
2021/05/01 08:47:08;;;;;;;21.60;16.80;;;;;;;22.06;32.68;97741.53;5047321;28;20037;-84
2021/05/01 08:49:34;;;;;;;19.65;15.48;;;;;;;21.39;33.83;97742.72;5050007;28;20106;-85
2021/05/01 08:52:00;;;;;;;20.02;16.50;;;;;;;20.60;34.76;97739.47;5047158;28;20644;-84
2021/05/01 08:54:26;;;;;;;17.38;13.02;;;;;;;21.58;34.35;97740.00;5044038;28;20104;-85
2021/05/01 08:56:53;;;;;;;20.63;16.63;;;;;;;22.37;31.73;97746.50;5046090;28;20116;-85
2021/05/01 08:59:19;;;;;;;14.52;11.80;;;;;;;22.95;31.12;97749.69;5045911;28;20100;-85
2021/05/01 09:01:50;;;;;;;21.02;16.38;;;;;;;22.07;32.29;97763.50;5047241;28;20459;-84
2021/05/01 09:04:16;;;;;;;11.98;9.75;;;;;;;24.17;29.49;97763.91;5046664;28;20394;-84
2021/05/01 09:06:42;;;;;;;19.70;15.38;;;;;;;24.02;28.86;97767.06;5046068;28;20120;-84
2021/05/01 09:09:10;;;;;;;11.65;10.20;;;;;;;24.22;28.45;97760.56;5041712;28;20453;-83
2021/05/01 09:11:40;;;;;;;23.00;15.52;;;;;;;22.87;30.80;97760.25;5039059;28;20036;-83
2021/05/01 09:14:29;;;;;;;20.10;15.00;;;;;;;22.46;31.80;97763.50;5040738;28;20044;-83
2021/05/01 09:17:02;;;;;;;21.40;16.30;;;;;;;22.16;33.30;97762.91;5041568;28;20103;-83
2021/05/01 09:19:47;;;;;;;13.43;10.75;;;;;;;24.21;29.57;97759.00;5045103;28;20043;-83
2021/05/01 09:22:14;;;;;;;21.55;16.25;;;;;;;22.45;33.04;97764.72;5042826;28;20037;-83
2021/05/01 09:24:43;;;;;;;20.92;16.83;;;;;;;21.32;34.54;97774.34;5042583;28;20025;-83
2021/05/01 09:27:15;;;;;;;21.42;16.80;;;;;;;21.60;34.60;97759.13;5043161;28;20056;-83
2021/05/01 09:29:42;;;;;;;18.63;16.50;;;;;;;22.54;32.33;97756.53;5035173;28;20038;-83
2021/05/01 09:32:24;;;;;;;19.90;14.77;;;;;;;22.88;32.65;97761.84;5043281;28;20041;-83
2021/05/01 09:34:54;;;;;;;21.05;16.08;;;;;;;23.63;30.75;97763.69;5039003;28;20506;-83
2021/05/01 09:37:23;;;;;;;18.42;13.70;;;;;;;24.71;29.08;97762.72;5041575;28;20437;-83
2021/05/01 09:39:54;;;;;;;17.48;13.98;;;;;;;24.83;28.92;97758.44;5044488;28;20033;-83
2021/05/01 09:42:21;;;;;;;;;;;;;;;25.53;27.02;97768.72;5042815;28;20030;-83
2021/05/01 09:45:04;;;;;;;21.48;15.05;;;;;;;23.59;30.05;97768.63;5041879;28;19917;-83
2021/05/01 09:47:30;;;;;;;19.58;15.73;;;;;;;22.97;31.65;97758.44;5040965;28;20072;-83
2021/05/01 09:49:56;;;;;;;20.83;16.67;;;;;;;21.77;33.77;97761.63;5041927;28;20517;-83
2021/05/01 09:52:23;;;;;;;23.75;17.25;;;;;;;20.97;35.73;97760.88;5039119;28;20044;-83
2021/05/01 09:54:51;;;;;;;28.42;20.67;;;;;;;20.61;35.48;97750.22;5046634;28;20025;-83
2021/05/01 09:57:21;;;;;;;20.08;16.30;;;;;;;21.77;33.59;97753.22;5040443;28;20042;-83
2021/05/01 09:59:53;;;;;;;25.05;19.20;;;;;;;21.53;34.10;97751.66;5044886;28;20041;-83
2021/05/01 10:02:22;;;;;;;26.38;19.02;;;;;;;21.50;34.37;97751.69;5041692;28;20103;-83
2021/05/01 10:05:05;;;;;;;23.27;17.63;;;;;;;23.48;30.79;97765.28;5045260;28;20029;-83
2021/05/01 10:07:33;;;;;;;21.45;14.88;;;;;;;24.69;28.52;97759.59;5040194;28;20134;-83
2021/05/01 10:09:59;;;;;;;20.02;16.20;;;;;;;24.78;28.90;97756.19;5040226;28;20120;-83
2021/05/01 10:12:41;;;;;;;18.52;14.13;;;;;;;25.25;27.62;97750.72;5044741;28;20029;-83
2021/05/01 10:15:26;;;;;;;25.40;19.10;;;;;;;24.04;29.67;97744.97;5043141;28;20114;-83
2021/05/01 10:17:53;;;;;;;21.25;16.90;;;;;;;22.93;31.32;97741.75;5044957;28;20407;-83
2021/05/01 10:20:20;;;;;;;21.88;16.35;;;;;;;22.99;30.98;97733.59;5043524;28;20036;-83
2021/05/01 10:22:50;;;;;;;20.75;16.35;;;;;;;23.25;31.43;97726.97;5044876;28;20033;-83
2021/05/01 10:25:19;;;;;;;29.48;19.15;;;;;;;22.34;32.65;97716.59;5046359;28;20120;-83
2021/05/01 10:27:49;;;;;;;29.52;20.17;;;;;;;21.39;33.94;97717.56;5048186;28;20071;-83
2021/05/01 10:30:32;;;;;;;26.42;19.73;;;;;;;21.79;34.35;97728.44;5047215;28;20387;-83
2021/05/01 10:35:48;;;;;;;22.02;16.25;;;;;;;24.09;30.21;97729.66;5046450;28;20049;-83
2021/05/01 10:38:21;;;;;;;21.92;16.10;;;;;;;24.28;29.19;97733.53;5044841;28;20458;-84
2021/05/01 10:40:55;;;;;;;20.33;15.65;;;;;;;24.44;29.18;97741.91;5045280;28;20463;-84
2021/05/01 10:43:26;;;;;;;22.05;16.60;;;;;;;24.43;28.97;97740.34;5043621;28;20033;-83
2021/05/01 10:46:29;;;;;;;20.83;16.73;;;;;;;22.93;31.29;97743.75;5046404;28;20033;-83
2021/05/01 10:48:58;;;;;;;13.10;11.48;;;;;;;24.59;28.86;97734.66;5044466;28;20109;-84
2021/05/01 10:51:30;;;;;;;13.73;9.75;;;;;;;25.19;27.77;97738.44;5043430;28;20036;-79
2021/05/01 10:54:12;;;;;;;19.55;15.85;;;;;;;24.80;28.47;97736.84;5043096;28;20033;-79
2021/05/01 10:56:46;;;;;;;15.02;11.80;;;;;;;25.94;26.93;97721.47;5042605;28;20037;-79
2021/05/01 10:59:17;;;;;;;19.38;15.50;;;;;;;25.06;27.54;97720.81;5039639;28;20529;-80
2021/05/01 11:01:48;;;;;;;19.38;15.27;;;;;;;24.96;28.06;97707.88;5060766;28;20116;-80
2021/05/01 11:04:28;;;;;;;17.05;14.30;;;;;;;26.23;27.11;97709.25;5044354;28;20071;-80
2021/05/01 11:07:16;;;;;;;20.00;15.53;;;;;;;25.82;27.22;97721.50;5040903;28;20029;-80
2021/05/01 11:09:46;;;;;;;20.42;14.30;;;;;;;26.15;26.57;97719.97;5041548;28;20072;-80
2021/05/01 11:12:16;;;;;;;24.95;16.90;;;;;;;25.10;27.87;97727.09;5025403;28;20063;-81
2021/05/01 11:14:50;;;;;;;19.38;15.77;;;;;;;25.00;28.32;97722.59;5048509;28;20167;-81
2021/05/01 11:17:31;;;;;;;19.63;16.38;;;;;;;24.71;28.74;97714.25;5049318;28;20155;-83
2021/05/01 11:20:03;;;;;;;18.40;15.70;;;;;;;24.62;29.35;97705.69;5044298;28;20033;-83
2021/05/01 11:22:31;;;;;;;11.27;9.00;;;;;;;26.67;26.37;97696.72;5052087;28;20120;-83
2021/05/01 11:24:58;;;;;;;14.93;10.77;;;;;;;28.30;24.17;97704.88;5043353;28;20033;-83
2021/05/01 11:27:25;;;;;;;11.63;9.52;;;;;;;29.43;22.90;97718.06;5043954;28;20068;-82
2021/05/01 11:29:52;;;;;;;8.82;7.70;;;;;;;30.07;22.08;97723.38;5043619;28;20026;-83
2021/05/01 11:32:19;;;;;;;14.90;9.88;;;;;;;29.86;21.67;97721.63;5042019;28;20125;-83
2021/05/01 11:34:58;;;;;;;10.85;8.77;;;;;;;29.32;22.49;97726.31;5044754;28;20029;-83